createdAt,value
2017-08-13T00:01:46.520Z,98877.88
2017-08-13T00:04:14.388Z,98875.95
2017-08-13T00:06:42.382Z,98879.16
2017-08-13T00:09:10.245Z,98881.95
2017-08-13T00:11:38.145Z,98882.98
2017-08-13T00:14:05.858Z,98890.27
2017-08-13T00:16:33.667Z,98897.17
2017-08-13T00:19:01.545Z,98905.23
2017-08-13T00:21:29.381Z,98911.04
2017-08-13T00:23:57.126Z,98914.56
2017-08-13T00:26:24.998Z,98918.99
2017-08-13T00:28:52.861Z,98915.39
2017-08-13T00:31:20.826Z,98913.91
2017-08-13T00:33:48.536Z,98907.92
2017-08-13T00:36:16.260Z,98915.52
2017-08-13T00:38:43.873Z,98916.48
2017-08-13T00:41:11.523Z,98938.77
2017-08-13T00:43:39.361Z,98957.76
2017-08-13T00:46:07.055Z,98975.31
2017-08-13T00:48:34.706Z,98974.89
2017-08-13T00:51:02.380Z,98981.25
2017-08-13T00:53:30.125Z,98980.72
2017-08-13T00:55:58.123Z,98978.29
2017-08-13T00:58:25.961Z,98973.11
2017-08-13T01:00:53.905Z,98978.21
2017-08-13T01:03:21.919Z,98988.68
2017-08-13T01:05:49.584Z,99004.52
2017-08-13T01:08:17.241Z,99000.50
2017-08-13T01:10:45.095Z,99001.65
2017-08-13T01:13:12.841Z,98995.64
2017-08-13T01:15:40.807Z,98999.16
2017-08-13T01:18:08.494Z,99005.41
2017-08-13T01:20:36.487Z,99004.47
2017-08-13T01:23:04.444Z,98999.55
2017-08-13T01:25:32.474Z,99000.91
2017-08-13T01:28:00.385Z,99005.19
2017-08-13T01:30:28.235Z,99012.14
2017-08-13T01:32:56.177Z,99013.66
2017-08-13T01:35:23.982Z,99013.31
2017-08-13T01:37:51.850Z,99003.11
2017-08-13T01:40:19.923Z,99015.59
2017-08-13T01:42:47.646Z,99018.87
2017-08-13T01:45:15.636Z,99020.17
2017-08-13T01:47:43.379Z,99019.73
2017-08-13T01:50:11.368Z,99021.84
2017-08-13T01:52:39.257Z,99026.98
2017-08-13T01:55:07.156Z,99028.40
2017-08-13T01:57:34.781Z,99030.72
2017-08-13T02:00:02.589Z,99038.83
2017-08-13T02:02:30.622Z,99042.77
2017-08-13T02:04:58.352Z,99044.77
2017-08-13T02:07:26.671Z,99050.94
2017-08-13T02:09:54.625Z,99048.21
2017-08-13T02:12:24.339Z,99051.09
2017-08-13T02:14:52.241Z,99055.56
2017-08-13T02:17:20.231Z,99056.20
2017-08-13T02:19:47.941Z,99051.92
2017-08-13T02:22:15.808Z,99052.58
2017-08-13T02:24:43.445Z,99051.48
2017-08-13T02:27:11.202Z,99054.31
2017-08-13T02:29:39.166Z,99052.68
2017-08-13T02:32:06.912Z,99051.59
2017-08-13T02:34:34.895Z,99053.63
2017-08-13T02:37:02.720Z,99059.78
2017-08-13T02:39:30.671Z,99057.00
2017-08-13T02:41:58.334Z,99059.24
2017-08-13T02:44:26.403Z,99055.95
2017-08-13T02:46:54.237Z,99063.27
2017-08-13T02:49:21.934Z,99069.38
2017-08-13T02:51:49.788Z,99074.25
2017-08-13T02:54:17.637Z,99075.20
2017-08-13T02:56:45.297Z,99085.05
2017-08-13T02:59:13.021Z,99084.16
2017-08-13T03:01:41.064Z,99085.28
2017-08-13T03:04:08.723Z,99089.77
2017-08-13T03:06:36.791Z,99092.25
2017-08-13T03:09:04.718Z,99091.55
2017-08-13T03:11:32.678Z,99089.38
2017-08-13T03:14:00.501Z,99088.27
2017-08-13T03:16:28.440Z,99087.37
2017-08-13T03:18:56.121Z,99081.57
2017-08-13T03:21:23.993Z,99077.38
2017-08-13T03:23:52.065Z,99083.80
2017-08-13T03:26:19.730Z,99081.06
2017-08-13T03:28:47.455Z,99087.97
2017-08-13T03:31:15.420Z,99080.73
2017-08-13T03:33:43.326Z,99080.40
2017-08-13T03:36:10.988Z,99072.77
2017-08-13T03:38:38.854Z,99078.92
2017-08-13T03:41:06.588Z,99075.36
2017-08-13T03:43:34.504Z,99073.13
2017-08-13T03:46:02.460Z,99074.09
2017-08-13T03:48:30.328Z,99080.75
2017-08-13T03:50:57.922Z,99081.39
2017-08-13T03:53:25.898Z,99079.61
2017-08-13T03:55:53.887Z,99083.94
2017-08-13T03:58:21.459Z,99092.09
2017-08-13T04:00:49.147Z,99096.09
2017-08-13T04:03:17.119Z,99092.70
2017-08-13T04:05:44.988Z,99097.16
2017-08-13T04:08:13.043Z,99097.28
2017-08-13T04:10:40.743Z,99098.28
2017-08-13T04:13:08.378Z,99102.89
2017-08-13T04:15:36.303Z,99100.98
2017-08-13T04:18:04.318Z,99107.87
2017-08-13T04:20:32.158Z,99099.41
2017-08-13T04:23:00.053Z,99105.63
2017-08-13T04:25:27.920Z,99107.23
2017-08-13T04:27:55.638Z,99107.41
2017-08-13T04:30:23.597Z,99109.97
2017-08-13T04:32:51.367Z,99109.43
2017-08-13T04:35:19.389Z,99103.61
2017-08-13T04:37:47.404Z,99108.52
2017-08-13T04:40:15.221Z,99101.59
2017-08-13T04:42:42.987Z,99102.34
2017-08-13T04:45:10.850Z,99097.36
2017-08-13T04:47:38.506Z,99103.78
2017-08-13T04:50:06.176Z,99103.00
2017-08-13T04:52:33.935Z,99101.29
2017-08-13T04:55:01.913Z,99104.03
2017-08-13T04:57:29.763Z,99110.48
2017-08-13T04:59:57.439Z,99110.42
2017-08-13T05:02:25.099Z,99098.23
2017-08-13T05:04:52.846Z,99109.53
2017-08-13T05:07:20.631Z,99112.28
2017-08-13T05:09:48.451Z,99112.43
2017-08-13T05:12:16.338Z,99117.65
2017-08-13T05:14:44.086Z,99113.64
2017-08-13T05:17:11.894Z,99113.34
2017-08-13T05:19:39.478Z,99110.66
2017-08-13T05:22:07.159Z,99122.14
2017-08-13T05:24:34.872Z,99116.66
2017-08-13T05:27:02.847Z,99117.37
2017-08-13T05:29:30.821Z,99110.89
2017-08-13T05:31:58.781Z,99111.48
2017-08-13T05:34:26.552Z,99115.22
2017-08-13T05:36:54.260Z,99110.20
2017-08-13T05:39:22.285Z,99113.93
2017-08-13T05:41:49.999Z,99117.83
2017-08-13T05:44:17.866Z,99116.83
2017-08-13T05:46:45.733Z,99114.45
2017-08-13T05:49:13.754Z,99117.76
2017-08-13T05:51:41.415Z,99122.10
2017-08-13T05:54:09.258Z,99122.20
2017-08-13T05:56:36.934Z,99130.19
2017-08-13T05:59:04.794Z,99123.48
2017-08-13T06:01:32.512Z,99128.42
2017-08-13T06:04:00.548Z,99134.13
2017-08-13T06:06:28.610Z,99136.89
2017-08-13T06:08:56.220Z,99142.36
2017-08-13T06:11:23.936Z,99141.39
2017-08-13T06:13:51.668Z,99145.34
2017-08-13T06:16:19.339Z,99150.05
2017-08-13T06:18:47.306Z,99150.91
2017-08-13T06:21:14.985Z,99146.16
2017-08-13T06:23:42.859Z,99143.88
2017-08-13T06:26:10.461Z,99143.07
2017-08-13T06:28:38.447Z,99151.41
2017-08-13T06:31:06.463Z,99147.59
2017-08-13T06:33:34.186Z,99146.41
2017-08-13T06:36:02.201Z,99143.97
2017-08-13T06:38:30.036Z,99144.23
2017-08-13T06:40:57.612Z,99148.89
2017-08-13T06:43:25.575Z,99153.50
2017-08-13T06:45:53.462Z,99143.64
2017-08-13T06:48:21.040Z,99142.27
2017-08-13T06:50:48.784Z,99143.67
2017-08-13T06:53:16.498Z,99149.42
2017-08-13T06:55:44.301Z,99148.42
2017-08-13T06:58:12.031Z,99150.19
2017-08-13T07:00:39.832Z,99147.39
2017-08-13T07:03:07.568Z,99151.98
2017-08-13T07:05:35.527Z,99150.19
2017-08-13T07:08:03.443Z,99149.86
2017-08-13T07:10:31.105Z,99156.28
2017-08-13T07:12:58.768Z,99156.33
2017-08-13T07:15:26.601Z,99160.78
2017-08-13T07:17:54.297Z,99162.11
2017-08-13T07:20:22.130Z,99163.23
2017-08-13T07:22:49.797Z,99164.86
2017-08-13T07:25:17.489Z,99160.22
2017-08-13T07:27:45.150Z,99162.48
2017-08-13T07:30:13.205Z,99166.58
2017-08-13T07:32:41.067Z,99176.84
2017-08-13T07:35:08.748Z,99171.77
2017-08-13T07:37:36.407Z,99173.70
2017-08-13T07:40:04.250Z,99176.02
2017-08-13T07:42:31.993Z,99171.70
2017-08-13T07:45:00.009Z,99175.64
2017-08-13T07:47:27.611Z,99167.64
2017-08-13T07:49:55.542Z,99167.58
2017-08-13T07:52:23.379Z,99167.42
2017-08-13T07:54:51.067Z,99165.27
2017-08-13T07:57:18.724Z,99167.47
2017-08-13T07:59:46.372Z,99171.27
2017-08-13T08:02:13.953Z,99172.14
2017-08-13T08:04:41.772Z,99170.47
2017-08-13T08:07:09.790Z,99172.84
2017-08-13T08:09:37.625Z,99176.41
2017-08-13T08:12:05.699Z,99176.73
2017-08-13T08:14:33.593Z,99177.61
2017-08-13T08:17:01.254Z,99183.30
2017-08-13T08:19:28.913Z,99192.70
2017-08-13T08:21:56.580Z,99185.20
2017-08-13T08:24:24.241Z,99193.91
2017-08-13T08:26:52.274Z,99188.66
2017-08-13T08:29:20.186Z,99195.89
2017-08-13T08:31:47.889Z,99190.75
2017-08-13T08:34:15.753Z,99202.33
2017-08-13T08:36:43.778Z,99193.69
2017-08-13T08:39:11.366Z,99191.27
2017-08-13T08:41:39.079Z,99189.87
2017-08-13T08:44:06.763Z,99192.44
2017-08-13T08:46:34.609Z,99194.99
2017-08-13T08:49:02.241Z,99197.79
2017-08-13T08:51:30.158Z,99202.41
2017-08-13T08:53:57.812Z,99194.25
2017-08-13T08:56:25.489Z,99196.61
2017-08-13T08:58:53.140Z,99200.04
2017-08-13T09:01:20.994Z,99193.73
2017-08-13T09:03:48.660Z,99187.50
2017-08-13T09:06:16.500Z,99198.56
2017-08-13T09:08:44.321Z,99188.05
2017-08-13T09:11:11.969Z,99188.82
2017-08-13T09:13:39.548Z,99185.34
2017-08-13T09:16:07.370Z,99182.97
2017-08-13T09:18:34.989Z,99190.64
2017-08-13T09:21:02.567Z,99188.51
2017-08-13T09:23:30.369Z,99194.20
2017-08-13T09:25:58.028Z,99190.24
2017-08-13T09:28:25.697Z,99187.50
2017-08-13T09:30:53.276Z,99189.30
2017-08-13T09:33:21.416Z,99195.90
2017-08-13T09:35:49.100Z,99201.61
2017-08-13T09:38:16.948Z,99201.44
2017-08-13T09:40:44.616Z,99193.73
2017-08-13T09:43:12.225Z,99186.41
2017-08-13T09:45:39.958Z,99194.86
2017-08-13T09:48:07.672Z,99193.53
2017-08-13T09:50:35.486Z,99194.91
2017-08-13T09:53:03.138Z,99190.46
2017-08-13T09:55:30.876Z,99196.06
2017-08-13T09:57:58.867Z,99203.41
2017-08-13T10:00:26.526Z,99199.76
2017-08-13T10:02:54.203Z,99207.42
2017-08-13T10:05:21.811Z,99210.29
2017-08-13T10:07:49.505Z,99209.98
2017-08-13T10:10:17.126Z,99216.29
2017-08-13T10:12:45.023Z,99209.09
2017-08-13T10:15:12.647Z,99213.73
2017-08-13T10:17:40.380Z,99219.05
2017-08-13T10:20:07.957Z,99224.18
2017-08-13T10:22:35.910Z,99219.77
2017-08-13T10:25:03.753Z,99226.80
2017-08-13T10:27:31.632Z,99229.89
2017-08-13T10:29:59.309Z,99234.77
2017-08-13T10:32:27.032Z,99246.29
2017-08-13T10:34:54.901Z,99247.97
2017-08-13T10:37:22.565Z,99249.42
2017-08-13T10:39:50.364Z,99252.42
2017-08-13T10:42:18.098Z,99255.67
2017-08-13T10:44:45.708Z,99253.07
2017-08-13T10:47:13.397Z,99250.96
2017-08-13T10:49:41.003Z,99252.86
2017-08-13T10:52:08.591Z,99247.66
2017-08-13T10:54:36.439Z,99242.41
2017-08-13T10:57:04.216Z,99235.75
2017-08-13T10:59:31.861Z,99247.66
2017-08-13T11:01:59.525Z,99254.94
2017-08-13T11:04:27.120Z,99252.63
2017-08-13T11:06:54.840Z,99249.44
2017-08-13T11:09:22.511Z,99253.03
2017-08-13T11:11:50.359Z,99254.76
2017-08-13T11:14:18.105Z,99256.27
2017-08-13T11:16:46.024Z,99258.17
2017-08-13T11:19:13.838Z,99266.54
2017-08-13T11:21:41.842Z,99263.72
2017-08-13T11:24:09.513Z,99265.01
2017-08-13T11:26:37.162Z,99264.22
2017-08-13T11:29:04.751Z,99261.34
2017-08-13T11:31:32.601Z,99254.02
2017-08-13T11:34:00.540Z,99272.72
2017-08-13T11:36:28.531Z,99269.45
2017-08-13T11:38:56.505Z,99273.20
2017-08-13T11:41:24.175Z,99278.44
2017-08-13T11:43:52.008Z,99282.22
2017-08-13T11:46:19.682Z,99286.20
2017-08-13T11:48:47.696Z,99295.54
2017-08-13T11:51:15.539Z,99303.62
2017-08-13T11:53:43.360Z,99304.20
2017-08-13T11:56:10.954Z,99301.79
2017-08-13T11:58:38.665Z,99297.41
2017-08-13T12:01:06.693Z,99301.67
2017-08-13T12:03:34.520Z,99307.72
2017-08-13T12:06:02.221Z,99307.55
2017-08-13T12:08:29.886Z,99306.16
2017-08-13T12:10:57.798Z,99303.67
2017-08-13T12:13:25.399Z,99299.28
2017-08-13T12:15:53.020Z,99291.92
2017-08-13T12:18:20.848Z,99302.17
2017-08-13T12:20:48.596Z,99301.66
2017-08-13T12:23:16.431Z,99300.03
2017-08-13T12:25:44.131Z,99305.77
2017-08-13T12:28:11.788Z,99307.97
2017-08-13T12:30:39.511Z,99306.56
2017-08-13T12:33:07.474Z,99304.38
2017-08-13T12:35:35.376Z,99302.28
2017-08-13T12:38:03.314Z,99302.73
2017-08-13T12:40:31.121Z,99301.20
2017-08-13T12:42:58.708Z,99297.95
2017-08-13T12:45:26.448Z,99302.31
2017-08-13T12:47:54.306Z,99296.24
2017-08-13T12:50:21.964Z,99297.94
2017-08-13T12:52:49.849Z,99290.45
2017-08-13T12:55:17.503Z,99294.39
2017-08-13T12:57:45.227Z,99291.08
2017-08-13T13:00:13.048Z,99296.30
2017-08-13T13:02:40.643Z,99290.16
2017-08-13T13:05:08.473Z,99287.09
2017-08-13T13:07:36.434Z,99289.27
2017-08-13T13:10:04.028Z,99285.64
2017-08-13T13:12:31.957Z,99292.23
2017-08-13T13:14:59.673Z,99291.44
2017-08-13T13:17:27.696Z,99289.12
2017-08-13T13:19:55.526Z,99295.19
2017-08-13T13:22:23.641Z,99297.02
2017-08-13T13:24:51.241Z,99303.98
2017-08-13T13:27:18.961Z,99286.95
2017-08-13T13:29:46.824Z,99297.65
2017-08-13T13:32:14.482Z,99291.28
2017-08-13T13:34:42.151Z,99290.36
2017-08-13T13:37:09.998Z,99291.94
2017-08-13T13:39:37.877Z,99294.22
2017-08-13T13:42:07.975Z,99304.97
2017-08-13T13:44:35.730Z,99308.34
2017-08-13T13:47:03.719Z,99311.23
2017-08-13T13:49:31.600Z,99309.23
2017-08-13T13:51:59.448Z,99308.05
2017-08-13T13:54:27.119Z,99297.80
2017-08-13T13:56:54.998Z,99301.81
2017-08-13T13:59:22.732Z,99303.27
2017-08-13T14:01:50.448Z,99300.13
2017-08-13T14:04:18.397Z,99296.58
2017-08-13T14:06:46.425Z,99300.69
2017-08-13T14:09:14.126Z,99301.51
2017-08-13T14:11:41.702Z,99307.23
2017-08-13T14:14:09.660Z,99304.61
2017-08-13T14:16:37.372Z,99312.76
2017-08-13T14:19:05.339Z,99311.70
2017-08-13T14:21:33.159Z,99304.94
2017-08-13T14:24:01.123Z,99311.91
2017-08-13T14:26:28.967Z,99314.87
2017-08-13T14:28:56.856Z,99321.72
2017-08-13T14:31:24.702Z,99313.41
2017-08-13T14:33:52.442Z,99323.53
2017-08-13T14:36:20.251Z,99325.90
2017-08-13T14:38:47.898Z,99328.73
2017-08-13T14:41:15.777Z,99321.42
2017-08-13T14:43:43.417Z,99327.13
2017-08-13T14:46:11.011Z,99338.17
2017-08-13T14:48:38.583Z,99338.76
2017-08-13T14:51:06.212Z,99335.52
2017-08-13T14:53:33.808Z,99335.55
2017-08-13T14:56:01.420Z,99331.97
2017-08-13T14:58:29.053Z,99329.59
2017-08-13T15:00:56.659Z,99333.98
2017-08-13T15:03:24.260Z,99334.09
2017-08-13T15:05:51.890Z,99338.05
2017-08-13T15:08:19.481Z,99343.39
2017-08-13T15:10:47.094Z,99339.84
2017-08-13T15:13:14.816Z,99339.58
2017-08-13T15:15:42.736Z,99332.88
2017-08-13T15:18:10.672Z,99332.79
2017-08-13T15:20:38.580Z,99327.40
2017-08-13T15:23:06.287Z,99327.16
2017-08-13T15:25:34.102Z,99319.86
2017-08-13T15:28:02.140Z,99323.99
2017-08-13T15:30:29.846Z,99323.33
2017-08-13T15:32:57.704Z,99326.73
2017-08-13T15:35:25.419Z,99329.00
2017-08-13T15:37:53.028Z,99333.83
2017-08-13T15:40:20.695Z,99340.45
2017-08-13T15:42:48.558Z,99347.72
2017-08-13T15:45:16.219Z,99352.56
2017-08-13T15:47:43.805Z,99355.38
2017-08-13T15:50:11.419Z,99361.12
2017-08-13T15:52:39.271Z,99369.55
2017-08-13T15:55:07.131Z,99380.66
2017-08-13T15:57:34.943Z,99388.66
2017-08-13T16:00:02.613Z,99390.98
2017-08-13T16:02:30.263Z,99393.55
2017-08-13T16:04:57.981Z,99397.18
2017-08-13T16:07:25.608Z,99404.56
2017-08-13T16:09:53.185Z,99402.62
2017-08-13T16:12:20.878Z,99421.16
2017-08-13T16:14:48.576Z,99417.10
2017-08-13T16:17:16.290Z,99419.77
2017-08-13T16:19:44.310Z,99422.09
2017-08-13T16:22:12.143Z,99428.09
2017-08-13T16:24:39.891Z,99429.75
2017-08-13T16:27:07.917Z,99432.35
2017-08-13T16:29:35.746Z,99422.53
2017-08-13T16:32:03.649Z,99437.64
2017-08-13T16:34:31.308Z,99437.41
2017-08-13T16:36:58.969Z,99442.52
2017-08-13T16:39:26.632Z,99438.93
2017-08-13T16:41:54.497Z,99439.60
2017-08-13T16:44:22.151Z,99446.90
2017-08-13T16:46:49.990Z,99445.48
2017-08-13T16:49:17.695Z,99445.56
2017-08-13T16:51:45.351Z,99447.66
2017-08-13T16:54:13.010Z,99456.17
2017-08-13T16:56:40.676Z,99455.69
2017-08-13T16:59:08.270Z,99470.08
2017-08-13T17:01:36.000Z,99466.01
2017-08-13T17:04:04.103Z,99463.34
2017-08-13T17:06:31.732Z,99468.55
2017-08-13T17:08:59.401Z,99462.61
2017-08-13T17:11:27.060Z,99464.46
2017-08-13T17:13:54.785Z,99458.82
2017-08-13T17:16:22.791Z,99462.23
2017-08-13T17:18:50.817Z,99470.11
2017-08-13T17:21:18.524Z,99473.71
2017-08-13T17:23:46.376Z,99477.91
2017-08-13T17:26:14.042Z,99483.88
2017-08-13T17:28:41.763Z,99490.52
2017-08-13T17:31:09.787Z,99495.80
2017-08-13T17:33:37.631Z,99502.44
2017-08-13T17:36:05.363Z,99504.25
2017-08-13T17:38:32.973Z,99510.32
2017-08-13T17:41:00.842Z,99518.80
2017-08-13T17:43:28.506Z,99520.91
2017-08-13T17:45:56.578Z,99513.60
2017-08-13T17:48:24.260Z,99530.14
2017-08-13T17:50:52.109Z,99540.73
2017-08-13T17:53:19.954Z,99532.41
2017-08-13T17:55:47.840Z,99540.67
2017-08-13T17:58:15.501Z,99536.86
2017-08-13T18:00:43.169Z,99542.73
2017-08-13T18:03:11.026Z,99542.25
2017-08-13T18:05:38.695Z,99542.02
2017-08-13T18:08:06.341Z,99537.91
2017-08-13T18:10:34.046Z,99539.69
2017-08-13T18:13:01.646Z,99539.94
2017-08-13T18:15:29.334Z,99537.41
2017-08-13T18:17:57.152Z,99542.73
2017-08-13T18:20:25.045Z,99539.71
2017-08-13T18:22:52.954Z,99533.06
2017-08-13T18:25:21.022Z,99536.45
2017-08-13T18:27:49.071Z,99535.55
2017-08-13T18:30:16.912Z,99539.80
2017-08-13T18:32:44.928Z,99538.06
2017-08-13T18:35:12.659Z,99543.07
2017-08-13T18:37:40.543Z,99541.89
2017-08-13T18:40:08.625Z,99543.37
2017-08-13T18:42:36.696Z,99542.66
2017-08-13T18:45:04.429Z,99542.94
2017-08-13T18:47:32.508Z,99542.16
2017-08-13T18:50:00.366Z,99545.70
2017-08-13T18:52:28.255Z,99549.35
2017-08-13T18:54:56.157Z,99548.72
2017-08-13T18:57:24.092Z,99554.44
2017-08-13T18:59:51.937Z,99557.92
2017-08-13T19:02:19.626Z,99551.50
2017-08-13T19:04:47.495Z,99552.09
2017-08-13T19:07:15.161Z,99557.64
2017-08-13T19:09:43.246Z,99564.59
2017-08-13T19:12:11.193Z,99570.33
2017-08-13T19:14:39.225Z,99576.57
2017-08-13T19:17:07.593Z,99581.67
2017-08-13T19:19:35.315Z,99576.77
2017-08-13T19:22:03.741Z,99582.15
2017-08-13T19:24:32.051Z,99580.19
2017-08-13T19:27:00.640Z,99578.77
2017-08-13T19:29:28.511Z,99578.62
2017-08-13T19:31:56.580Z,99576.37
2017-08-13T19:34:24.601Z,99580.48
2017-08-13T19:36:52.502Z,99571.63
2017-08-13T19:39:20.387Z,99580.88
2017-08-13T19:41:48.371Z,99582.89
2017-08-13T19:44:16.454Z,99575.96
2017-08-13T19:46:44.493Z,99584.03
2017-08-13T19:49:12.590Z,99577.30
2017-08-13T19:51:40.670Z,99577.86
2017-08-13T19:54:08.506Z,99579.01
2017-08-13T19:56:36.218Z,99578.45
2017-08-13T19:59:03.908Z,99577.16
2017-08-13T20:01:31.899Z,99573.59
2017-08-13T20:03:59.800Z,99574.88
2017-08-13T20:06:27.509Z,99578.02
2017-08-13T20:08:55.523Z,99579.94
2017-08-13T20:11:23.598Z,99581.26
2017-08-13T20:13:51.432Z,99582.24
2017-08-13T20:16:19.329Z,99581.23
2017-08-13T20:18:47.487Z,99580.50
2017-08-13T20:21:15.434Z,99580.67
2017-08-13T20:23:43.535Z,99577.56
2017-08-13T20:26:11.232Z,99577.05
2017-08-13T20:28:38.857Z,99576.19
2017-08-13T20:31:06.695Z,99569.50
2017-08-13T20:33:34.744Z,99578.68
2017-08-13T20:36:02.666Z,99585.55
2017-08-13T20:38:30.739Z,99592.86
2017-08-13T20:40:58.379Z,99596.17
2017-08-13T20:43:26.231Z,99598.40
2017-08-13T20:45:53.927Z,99595.59
2017-08-13T20:48:21.586Z,99605.83
2017-08-13T20:50:49.521Z,99604.37
2017-08-13T20:53:17.317Z,99604.65
2017-08-13T20:55:45.141Z,99609.05
2017-08-13T20:58:12.881Z,99604.65
2017-08-13T21:00:40.711Z,99607.63
2017-08-13T21:03:08.573Z,99611.07
2017-08-13T21:05:36.247Z,99609.78
2017-08-13T21:08:03.960Z,99610.61
2017-08-13T21:10:31.926Z,99618.11
2017-08-13T21:12:59.768Z,99618.39
2017-08-13T21:15:27.509Z,99614.12
2017-08-13T21:17:55.349Z,99622.97
2017-08-13T21:20:23.219Z,99617.84
2017-08-13T21:22:50.904Z,99618.34
2017-08-13T21:25:18.563Z,99622.23
2017-08-13T21:27:46.230Z,99616.17
2017-08-13T21:30:14.057Z,99618.84
2017-08-13T21:32:41.651Z,99621.13
2017-08-13T21:35:09.419Z,99620.02
2017-08-13T21:37:37.390Z,99619.70
2017-08-13T21:40:05.359Z,99624.30
2017-08-13T21:42:33.022Z,99627.59
2017-08-13T21:45:01.689Z,99624.58
2017-08-13T21:47:29.365Z,99631.55
2017-08-13T21:49:57.100Z,99629.64
2017-08-13T21:52:24.895Z,99623.58
2017-08-13T21:54:52.560Z,99627.47
2017-08-13T21:57:20.401Z,99629.17
2017-08-13T21:59:48.054Z,99625.95
2017-08-13T22:02:15.754Z,99632.31
2017-08-13T22:04:43.619Z,99624.23
2017-08-13T22:07:11.486Z,99631.09
2017-08-13T22:09:39.333Z,99630.35
2017-08-13T22:12:07.078Z,99631.00
2017-08-13T22:14:35.042Z,99630.80
2017-08-13T22:17:02.749Z,99630.23
2017-08-13T22:19:30.570Z,99628.42
2017-08-13T22:21:58.413Z,99619.18
2017-08-13T22:24:26.144Z,99616.36
2017-08-13T22:26:54.177Z,99617.77
2017-08-13T22:29:21.875Z,99620.04
2017-08-13T22:31:49.540Z,99620.95
2017-08-13T22:34:17.198Z,99622.67
2017-08-13T22:36:44.919Z,99616.45
2017-08-13T22:39:12.687Z,99613.45
2017-08-13T22:41:40.598Z,99614.19
2017-08-13T22:44:08.254Z,99610.72
2017-08-13T22:46:35.920Z,99604.53
2017-08-13T22:49:03.629Z,99602.14
2017-08-13T22:51:31.432Z,99595.06
2017-08-13T22:53:59.419Z,99597.42
2017-08-13T22:56:27.005Z,99599.70
2017-08-13T22:58:54.850Z,99601.70
2017-08-13T23:01:22.503Z,99599.49
2017-08-13T23:03:50.164Z,99599.88
2017-08-13T23:06:17.826Z,99601.83
2017-08-13T23:08:45.546Z,99607.28
2017-08-13T23:11:13.560Z,99610.59
2017-08-13T23:13:41.229Z,99610.70
2017-08-13T23:16:09.269Z,99612.52
2017-08-13T23:18:37.012Z,99613.88
2017-08-13T23:21:05.028Z,99614.14
2017-08-13T23:23:32.607Z,99620.39
2017-08-13T23:26:00.195Z,99618.59
2017-08-13T23:28:27.979Z,99621.36
2017-08-13T23:30:55.886Z,99615.80
2017-08-13T23:33:23.530Z,99629.49
2017-08-13T23:35:51.615Z,99624.37
2017-08-13T23:38:19.210Z,99623.08
2017-08-13T23:40:47.064Z,99628.64
2017-08-13T23:43:15.016Z,99625.80
2017-08-13T23:45:42.623Z,99620.84
2017-08-13T23:48:10.463Z,99619.29
2017-08-13T23:50:38.310Z,99621.35
2017-08-13T23:53:06.274Z,99622.91
2017-08-13T23:55:34.312Z,99625.63
2017-08-13T23:58:02.013Z,99627.23
